Time;durP1;ratioP1;P1;durP2;ratioP2;P2;SDS_P1;SDS_P2;PMS_P1;PMS_P2;Temp;Humidity;BMP_temperature;BMP_pressure;BME280_temperature;BME280_humidity;BME280_pressure;Samples;Min_cycle;Max_cycle;Signal;HPM_P1;HPM_P2
2022/12/07 00:01:47;;;;;;;11.15;6.60;;;;;;;2.31;100.00;100014.44;5073689;28;20111;-76
2022/12/07 00:04:28;;;;;;;10.80;5.97;;;;;;;2.32;100.00;100007.56;5073138;28;20040;-77
2022/12/07 00:06:54;;;;;;;10.27;6.00;;;;;;;2.39;100.00;100006.59;5073354;28;20028;-76
2022/12/07 00:09:21;;;;;;;9.13;5.43;;;;;;;2.33;100.00;99997.88;5072892;28;20063;-76
2022/12/07 00:11:54;;;;;;;9.88;4.70;;;;;;;2.33;100.00;100003.50;5072221;28;20033;-76
2022/12/07 00:14:21;;;;;;;7.32;4.88;;;;;;;2.31;100.00;99992.66;5072349;28;20036;-77
2022/12/07 00:16:50;;;;;;;8.25;5.88;;;;;;;2.27;100.00;99988.38;5072276;28;20032;-77
2022/12/07 00:19:16;;;;;;;6.75;4.80;;;;;;;2.26;100.00;99987.56;5071935;28;20338;-77
2022/12/07 00:21:44;;;;;;;7.70;4.43;;;;;;;2.22;100.00;99984.06;5072851;28;20043;-77
2022/12/07 00:24:12;;;;;;;11.55;4.95;;;;;;;2.21;100.00;99996.56;5076767;28;20504;-77
2022/12/07 00:26:43;;;;;;;8.45;4.72;;;;;;;2.27;100.00;99988.38;5059844;28;20040;-77
2022/12/07 00:29:16;;;;;;;7.22;4.82;;;;;;;2.33;100.00;99990.22;5077292;28;20036;-76
2022/12/07 00:31:43;;;;;;;7.78;4.43;;;;;;;2.29;100.00;99985.91;5077525;28;20036;-77
2022/12/07 00:34:13;;;;;;;9.65;4.28;;;;;;;2.28;100.00;99984.31;5075926;28;20027;-76
2022/12/07 00:36:39;;;;;;;5.00;3.58;;;;;;;2.31;100.00;99977.78;5075882;28;20043;-76
2022/12/07 00:39:07;;;;;;;6.32;3.95;;;;;;;2.29;100.00;99983.09;5075846;28;20036;-76
2022/12/07 00:41:34;;;;;;;7.10;4.20;;;;;;;2.33;100.00;99978.94;5075301;28;20052;-77
2022/12/07 00:44:00;;;;;;;4.72;3.58;;;;;;;2.33;100.00;99978.94;5076896;28;20036;-76
2022/12/07 00:46:26;;;;;;;6.50;3.83;;;;;;;2.35;100.00;99970.00;5075772;28;20059;-76
2022/12/07 00:48:57;;;;;;;6.28;3.65;;;;;;;2.39;100.00;99972.75;5076777;28;20119;-76
2022/12/07 00:51:25;;;;;;;4.18;3.00;;;;;;;2.41;100.00;99975.91;5075872;28;20115;-76
2022/12/07 00:54:05;;;;;;;4.80;3.67;;;;;;;2.43;100.00;99976.25;5076092;28;20078;-76
2022/12/07 00:56:31;;;;;;;5.47;3.50;;;;;;;2.32;100.00;99977.34;5076730;28;20028;-76
2022/12/07 00:59:18;;;;;;;4.82;3.42;;;;;;;2.35;100.00;99986.94;5076847;28;20029;-77
2022/12/07 01:01:45;;;;;;;5.30;3.33;;;;;;;2.31;100.00;99987.03;5075269;28;20349;-77
2022/12/07 01:04:11;;;;;;;5.43;3.22;;;;;;;2.33;100.00;99986.59;5076689;28;20032;-77
2022/12/07 01:06:45;;;;;;;6.47;3.63;;;;;;;2.33;100.00;99984.56;5076870;28;20047;-77
2022/12/07 01:09:12;;;;;;;5.68;3.35;;;;;;;2.29;100.00;99975.41;5076803;28;20055;-76
2022/12/07 01:11:52;;;;;;;6.25;3.78;;;;;;;2.28;100.00;99981.50;5075526;28;20036;-76
2022/12/07 01:14:18;;;;;;;5.45;3.25;;;;;;;2.25;100.00;99976.72;5075408;28;20032;-76
2022/12/07 01:16:51;;;;;;;6.68;3.67;;;;;;;2.29;100.00;99978.22;5076738;28;20036;-76
2022/12/07 01:19:18;;;;;;;5.22;3.38;;;;;;;2.23;100.00;99977.19;5075020;28;20031;-76
2022/12/07 01:21:44;;;;;;;4.93;3.33;;;;;;;2.28;100.00;99976.66;5075562;28;20044;-77
2022/12/07 01:24:11;;;;;;;4.97;3.22;;;;;;;2.27;100.00;99977.88;5075881;28;20405;-76
2022/12/07 01:26:36;;;;;;;5.80;3.30;;;;;;;2.24;100.00;99970.31;5074651;28;20044;-76
2022/12/07 01:29:01;;;;;;;6.05;2.88;;;;;;;2.25;100.00;99971.88;5075205;28;20033;-76
2022/12/07 01:31:49;;;;;;;5.00;2.78;;;;;;;2.33;100.00;99972.50;5074969;28;20527;-76
2022/12/07 01:34:16;;;;;;;7.13;2.80;;;;;;;2.25;100.00;99974.72;5074864;28;20500;-76
2022/12/07 01:36:44;;;;;;;5.20;2.85;;;;;;;2.25;100.00;99976.72;5075133;28;20152;-77
2022/12/07 01:39:10;;;;;;;3.50;2.78;;;;;;;2.27;100.00;99977.09;5075656;28;20036;-75
2022/12/07 01:41:42;;;;;;;3.88;2.40;;;;;;;2.18;100.00;99976.94;5056606;28;20041;-76
2022/12/07 01:44:22;;;;;;;3.60;2.53;;;;;;;2.15;100.00;99975.78;5057321;28;20040;-76
2022/12/07 01:47:05;;;;;;;4.68;2.40;;;;;;;2.11;100.00;99972.28;5074482;28;20461;-76
2022/12/07 01:49:46;;;;;;;4.07;2.05;;;;;;;2.13;100.00;99974.66;5073635;28;20021;-77
2022/12/07 01:52:28;;;;;;;4.68;2.97;;;;;;;2.10;100.00;99965.06;5072988;28;20097;-76
2022/12/07 01:55:08;;;;;;;3.30;2.35;;;;;;;2.16;100.00;99970.94;5074112;28;20024;-76
2022/12/07 01:57:36;;;;;;;4.18;2.13;;;;;;;2.20;100.00;99969.59;5073055;28;20044;-76
2022/12/07 02:00:08;;;;;;;7.28;2.58;;;;;;;2.14;100.00;99974.22;5056903;28;20086;-75
2022/12/07 02:02:39;;;;;;;3.00;1.95;;;;;;;2.15;100.00;99972.97;5056187;28;20489;-76
2022/12/07 02:05:06;;;;;;;3.50;2.00;;;;;;;2.26;100.00;99984.75;5057737;28;20029;-76
2022/12/07 02:07:41;;;;;;;2.17;1.67;;;;;;;2.23;100.00;99977.19;5074585;28;20059;-76
2022/12/07 02:10:25;;;;;;;2.33;1.67;;;;;;;2.15;100.00;99977.81;5074188;28;20024;-76
2022/12/07 02:13:14;;;;;;;1.60;1.25;;;;;;;2.07;100.00;99971.59;5075644;28;20097;-76
2022/12/07 02:16:06;;;;;;;2.47;1.60;;;;;;;2.07;100.00;99980.03;5075030;28;20025;-76
2022/12/07 02:18:59;;;;;;;3.00;1.48;;;;;;;1.97;100.00;99981.09;5075474;28;20565;-76
2022/12/07 02:21:53;;;;;;;1.98;1.70;;;;;;;1.90;100.00;99975.66;5073840;28;20386;-76
2022/12/07 02:24:35;;;;;;;2.08;1.50;;;;;;;1.87;100.00;99979.34;5075032;28;20054;-77
2022/12/07 02:27:55;;;;;;;2.05;1.73;;;;;;;1.91;100.00;99975.22;5057318;28;20102;-77
2022/12/07 02:30:22;;;;;;;2.10;1.40;;;;;;;1.85;100.00;99971.34;5052051;28;20044;-77
2022/12/07 02:33:01;;;;;;;1.98;1.13;;;;;;;1.85;100.00;99971.34;5073828;28;20032;-77
2022/12/07 02:35:51;;;;;;;2.42;1.42;;;;;;;1.89;100.00;99980.50;5073891;28;20025;-77
2022/12/07 02:38:28;;;;;;;3.00;1.90;;;;;;;1.88;100.00;99975.31;5073817;28;20586;-77
2022/12/07 02:41:10;;;;;;;3.15;1.42;;;;;;;1.74;100.00;99982.09;5073039;28;20031;-76
2022/12/07 02:43:42;;;;;;;1.50;1.30;;;;;;;1.72;100.00;99981.75;5073341;28;20068;-77
2022/12/07 02:46:11;;;;;;;2.35;1.35;;;;;;;1.74;100.00;99970.03;5056511;28;20037;-76
2022/12/07 02:48:39;;;;;;;1.60;1.40;;;;;;;1.69;100.00;99977.00;5073397;28;20111;-76
2022/12/07 02:51:04;;;;;;;1.83;1.38;;;;;;;1.70;100.00;99977.78;5056751;28;20048;-76
2022/12/07 02:53:42;;;;;;;2.08;1.17;;;;;;;1.71;100.00;99979.34;5074690;28;20385;-76
2022/12/07 02:56:18;;;;;;;1.80;1.45;;;;;;;1.68;100.00;99981.03;5073935;28;20039;-75
2022/12/07 02:59:05;;;;;;;2.60;1.17;;;;;;;1.68;100.00;99974.63;5073199;28;20035;-76
2022/12/07 03:01:41;;;;;;;2.63;1.55;;;;;;;1.56;100.00;99953.56;5074364;28;20035;-75
2022/12/07 03:04:40;;;;;;;1.20;1.10;;;;;;;1.71;100.00;99971.69;5074514;28;20032;-75
2022/12/07 03:07:37;;;;;;;2.00;1.27;;;;;;;1.67;100.00;99973.03;5074209;28;20032;-76
2022/12/07 03:10:25;;;;;;;1.83;1.27;;;;;;;1.73;100.00;99974.09;5074235;28;20032;-76
2022/12/07 03:13:15;;;;;;;1.77;1.52;;;;;;;1.73;100.00;99969.25;5072185;28;20136;-76
2022/12/07 03:16:03;;;;;;;2.83;1.60;;;;;;;1.80;100.00;99969.06;5072838;28;20535;-75
2022/12/07 03:18:33;;;;;;;2.30;1.42;;;;;;;1.76;100.00;99971.19;5074152;28;20029;-76
2022/12/07 03:21:05;;;;;;;2.67;1.52;;;;;;;1.78;100.00;99965.09;5072722;28;20410;-76
2022/12/07 03:23:34;;;;;;;3.60;1.60;;;;;;;1.81;100.00;99953.75;5056772;28;20036;-76
2022/12/07 03:26:00;;;;;;;2.60;1.60;;;;;;;1.85;100.00;99968.53;5039399;28;20036;-77
2022/12/07 03:28:31;;;;;;;3.67;1.98;;;;;;;1.84;100.00;99966.97;5072754;28;20059;-76
2022/12/07 03:31:21;;;;;;;3.63;1.50;;;;;;;1.84;100.00;99966.97;5072575;28;20029;-76
2022/12/07 03:34:27;;;;;;;3.90;1.77;;;;;;;1.90;100.00;99956.72;5072782;28;20385;-77
2022/12/07 03:37:12;;;;;;;3.75;1.90;;;;;;;1.87;100.00;99959.63;5072299;28;20043;-75
2022/12/07 03:39:53;;;;;;;2.17;1.70;;;;;;;1.90;100.00;99953.09;5072402;28;20035;-76
2022/12/07 03:42:19;;;;;;;2.17;1.45;;;;;;;1.87;100.00;99954.81;5073409;28;20044;-76
2022/12/07 03:44:46;;;;;;;3.58;2.22;;;;;;;1.93;100.00;99955.06;5072140;28;20052;-76
2022/12/07 03:47:42;;;;;;;3.58;1.92;;;;;;;2.02;100.00;99949.59;5055889;28;20043;-76
2022/12/07 03:50:24;;;;;;;1.77;1.58;;;;;;;2.07;100.00;99934.94;5073553;28;20028;-76
2022/12/07 03:52:56;;;;;;;1.98;1.80;;;;;;;2.05;100.00;99943.03;5072512;28;20028;-76
2022/12/07 03:55:37;;;;;;;2.42;2.08;;;;;;;1.99;100.00;99936.38;5072412;28;20062;-76
2022/12/07 03:58:08;;;;;;;5.22;3.20;;;;;;;2.00;100.00;99935.13;5071708;28;20036;-76
2022/12/07 04:00:36;;;;;;;2.22;2.03;;;;;;;2.04;100.00;99937.88;5055677;28;20040;-76
2022/12/07 04:03:03;;;;;;;3.80;2.17;;;;;;;2.01;100.00;99933.91;5038872;28;20420;-77
2022/12/07 04:05:30;;;;;;;3.75;2.10;;;;;;;1.98;100.00;99940.44;5072388;28;20040;-77
2022/12/07 04:07:56;;;;;;;2.08;1.80;;;;;;;1.96;100.00;99933.66;5072066;28;20082;-76
2022/12/07 04:10:24;;;;;;;2.67;2.10;;;;;;;1.96;100.00;99931.63;5073504;28;20025;-76
2022/12/07 04:12:50;;;;;;;2.20;1.85;;;;;;;1.97;100.00;99938.84;5073330;28;20082;-76
2022/12/07 04:15:15;;;;;;;1.90;1.67;;;;;;;2.00;100.00;99945.59;5054654;28;20456;-76
2022/12/07 04:17:42;;;;;;;2.88;2.22;;;;;;;2.01;100.00;99948.00;5072412;28;20032;-76
2022/12/07 04:20:08;;;;;;;2.28;1.77;;;;;;;2.16;100.00;99940.75;5070394;28;20032;-76
2022/12/07 04:22:34;;;;;;;2.60;2.40;;;;;;;2.13;100.00;99943.66;5073530;28;20032;-76
2022/12/07 04:24:59;;;;;;;5.22;2.00;;;;;;;2.10;100.00;99947.34;5072164;28;20037;-75
2022/12/07 04:27:25;;;;;;;4.07;2.22;;;;;;;2.07;100.00;99946.22;5071950;28;20025;-75
2022/12/07 04:29:52;;;;;;;3.38;1.90;;;;;;;2.10;100.00;99938.91;5073233;28;20020;-76
2022/12/07 04:32:18;;;;;;;2.55;2.35;;;;;;;2.06;100.00;99939.00;5073379;28;20032;-76
2022/12/07 04:34:46;;;;;;;2.13;1.92;;;;;;;2.09;100.00;99945.78;5072884;28;20051;-76
2022/12/07 04:37:13;;;;;;;2.55;2.20;;;;;;;2.08;100.00;99938.56;5072072;28;20082;-76
2022/12/07 04:39:40;;;;;;;4.65;2.30;;;;;;;2.01;100.00;99939.53;5071793;28;20465;-77
2022/12/07 04:42:06;;;;;;;2.80;2.38;;;;;;;1.98;100.00;99943.25;5072711;28;20146;-77
2022/12/07 04:44:32;;;;;;;4.22;2.60;;;;;;;1.86;100.00;99936.31;5071844;28;20032;-76
2022/12/07 04:47:01;;;;;;;2.63;2.00;;;;;;;1.84;100.00;99935.97;5071619;28;20106;-76
2022/12/07 04:49:27;;;;;;;3.35;2.97;;;;;;;1.92;100.00;99933.75;5073021;28;20392;-75
2022/12/07 04:51:54;;;;;;;2.88;1.95;;;;;;;1.96;100.00;99933.66;5072925;28;20033;-75
2022/12/07 04:54:23;;;;;;;4.18;2.65;;;;;;;1.95;100.00;99930.03;5071614;28;20085;-75
2022/12/07 04:56:51;;;;;;;7.25;3.08;;;;;;;1.94;100.00;99938.94;5072961;28;20031;-74
2022/12/07 04:59:17;;;;;;;4.28;2.50;;;;;;;1.87;100.00;99931.47;5072747;28;20035;-75
2022/12/07 05:01:43;;;;;;;4.88;2.50;;;;;;;1.85;100.00;99931.91;5072955;28;20035;-75
2022/12/07 05:04:09;;;;;;;6.35;3.00;;;;;;;1.88;100.00;99939.47;5071420;28;20036;-75
2022/12/07 05:06:36;;;;;;;5.05;2.63;;;;;;;1.95;100.00;99924.41;5071591;28;20032;-74
2022/12/07 05:09:02;;;;;;;5.32;2.90;;;;;;;1.91;100.00;99934.97;5074088;28;20064;-74
2022/12/07 05:11:38;;;;;;;3.95;2.42;;;;;;;1.95;100.00;99935.66;5075262;28;20404;-74
2022/12/07 05:14:18;;;;;;;3.28;2.83;;;;;;;1.99;100.00;99930.75;5076381;28;20422;-75
2022/12/07 05:16:53;;;;;;;4.40;2.90;;;;;;;2.04;100.00;99940.69;5076405;28;20021;-74
2022/12/07 05:19:19;;;;;;;4.15;2.60;;;;;;;2.06;100.00;99939.00;5075091;28;20074;-75
2022/12/07 05:21:45;;;;;;;2.47;2.13;;;;;;;2.13;100.00;99935.22;5076561;28;20025;-75
2022/12/07 05:24:17;;;;;;;2.88;2.20;;;;;;;2.08;100.00;99933.72;5074924;28;20059;-74
2022/12/07 05:26:43;;;;;;;3.75;2.00;;;;;;;2.04;100.00;99935.84;5076579;28;20028;-75
2022/12/07 05:29:11;;;;;;;2.42;1.70;;;;;;;2.07;100.00;99931.34;5058541;28;20039;-74
2022/12/07 05:31:37;;;;;;;5.15;2.50;;;;;;;2.11;100.00;99927.19;5076304;28;20487;-75
2022/12/07 05:34:02;;;;;;;5.38;2.35;;;;;;;2.02;100.00;99935.50;5076154;28;20020;-75
2022/12/07 05:36:28;;;;;;;4.72;2.72;;;;;;;2.12;100.00;99928.78;5076239;28;20032;-76
2022/12/07 05:38:54;;;;;;;6.30;3.50;;;;;;;2.09;100.00;99935.31;5058189;28;20086;-75
2022/12/07 05:44:19;;;;;;;6.80;3.72;;;;;;;2.02;100.00;99937.50;5060775;28;20044;-75
2022/12/07 05:46:46;;;;;;;7.28;4.53;;;;;;;2.08;100.00;99936.53;5074713;28;20088;-75
2022/12/07 05:49:11;;;;;;;7.57;4.78;;;;;;;2.06;100.00;99927.72;5074909;28;20036;-75
2022/12/07 05:51:37;;;;;;;9.45;4.47;;;;;;;2.07;100.00;99937.78;5074373;28;20397;-74
2022/12/07 05:54:04;;;;;;;12.88;6.13;;;;;;;2.11;100.00;99932.81;5076173;28;20027;-74
2022/12/07 05:56:31;;;;;;;12.65;6.03;;;;;;;2.11;100.00;99940.47;5075749;28;20024;-74
2022/12/07 06:01:41;;;;;;;10.80;6.72;;;;;;;2.08;100.00;99933.72;5075854;28;20062;-73
2022/12/07 06:04:07;;;;;;;17.58;11.93;;;;;;;2.07;100.00;99931.34;5074605;28;20073;-74
2022/12/07 06:06:33;;;;;;;15.50;7.82;;;;;;;2.04;100.00;99938.66;5074261;28;20440;-74
2022/12/07 06:08:59;;;;;;;12.65;7.40;;;;;;;2.01;100.00;99916.19;5075203;28;20037;-75
2022/12/07 06:14:12;;;;;;;19.40;8.77;;;;;;;2.05;100.00;99928.97;5074396;28;20538;-75
2022/12/07 06:16:40;;;;;;;18.20;8.63;;;;;;;2.13;100.00;99919.09;5074053;28;20557;-73
2022/12/07 06:19:06;;;;;;;16.65;9.13;;;;;;;2.06;100.00;99924.13;5075485;28;20036;-75
2022/12/07 06:21:32;;;;;;;16.80;9.15;;;;;;;2.10;100.00;99922.78;5074387;28;20079;-73
2022/12/07 06:23:57;;;;;;;20.45;9.73;;;;;;;2.06;100.00;99924.13;5074541;28;20048;-74
2022/12/07 06:26:24;;;;;;;17.33;8.93;;;;;;;2.04;100.00;99924.59;5074623;28;20098;-74
2022/12/07 06:28:49;;;;;;;18.00;8.75;;;;;;;2.00;100.00;99925.88;5074453;28;20025;-75
2022/12/07 06:31:17;;;;;;;18.58;8.73;;;;;;;2.00;100.00;99918.22;5056148;28;20102;-74
2022/12/07 06:33:43;;;;;;;16.77;9.10;;;;;;;2.09;100.00;99921.22;5074460;28;20050;-74
2022/12/07 06:36:09;;;;;;;14.77;8.70;;;;;;;2.04;100.00;99916.13;5074105;28;20476;-73
2022/12/07 06:38:35;;;;;;;16.00;9.05;;;;;;;2.12;100.00;99916.72;5065091;28;20116;-76
2022/12/07 06:41:01;;;;;;;20.92;10.05;;;;;;;2.12;100.00;99927.97;5051130;28;20529;-75
2022/12/07 06:43:30;;;;;;;18.08;8.98;;;;;;;2.15;100.00;99929.91;5035756;28;20124;-75
2022/12/07 06:46:16;;;;;;;23.33;9.00;;;;;;;2.12;100.00;99923.13;5036274;28;20045;-75
2022/12/07 06:48:43;;;;;;;16.58;9.10;;;;;;;2.11;100.00;99915.91;5052879;28;20047;-75
2022/12/07 06:51:09;;;;;;;18.10;9.68;;;;;;;2.12;100.00;99917.50;5052224;28;20119;-75
2022/12/07 06:53:36;;;;;;;21.15;9.80;;;;;;;2.12;100.00;99922.34;5052747;28;20120;-73
2022/12/07 06:56:02;;;;;;;16.75;9.30;;;;;;;2.08;100.00;99922.44;5054885;28;20048;-75
2022/12/07 06:58:27;;;;;;;19.52;9.73;;;;;;;2.11;100.00;99923.56;5053699;28;20028;-74
2022/12/07 07:00:54;;;;;;;20.02;9.38;;;;;;;2.08;100.00;99922.44;5054600;28;20458;-74
2022/12/07 07:03:20;;;;;;;21.60;10.02;;;;;;;2.03;100.00;99914.53;5036435;28;20124;-74
2022/12/07 07:05:47;;;;;;;20.00;9.30;;;;;;;2.05;100.00;99917.69;5054382;28;20025;-75
2022/12/07 07:08:21;;;;;;;19.98;10.27;;;;;;;2.13;100.00;99924.72;5054091;28;20481;-75
2022/12/07 07:10:55;;;;;;;25.00;10.93;;;;;;;2.14;100.00;99914.25;5054480;28;20024;-72
2022/12/07 07:13:20;;;;;;;17.40;8.32;;;;;;;2.10;100.00;99922.00;5053032;28;20052;-74
2022/12/07 07:16:07;;;;;;;17.35;9.40;;;;;;;2.07;100.00;99912.41;5054127;28;20495;-73
2022/12/07 07:18:33;;;;;;;17.98;9.05;;;;;;;2.07;100.00;99909.59;5066148;28;20076;-78
2022/12/07 07:21:00;;;;;;;18.83;9.82;;;;;;;2.16;100.00;99906.91;5063905;28;20045;-74
2022/12/07 07:23:27;;;;;;;19.63;10.25;;;;;;;2.25;100.00;99911.91;5066432;28;20110;-76
2022/12/07 07:25:53;;;;;;;20.45;9.75;;;;;;;2.21;100.00;99889.47;5056016;28;20020;-76
2022/12/07 07:28:19;;;;;;;16.77;9.63;;;;;;;2.23;100.00;99911.56;5072771;28;20079;-74
2022/12/07 07:30:46;;;;;;;19.15;9.52;;;;;;;2.35;100.00;99911.59;5073846;28;20036;-75
2022/12/07 07:33:12;;;;;;;21.10;10.90;;;;;;;2.35;100.00;99905.97;5073361;28;20115;-76
2022/12/07 07:35:41;;;;;;;17.52;9.50;;;;;;;2.27;100.00;99903.81;5073162;28;20051;-74
2022/12/07 07:38:08;;;;;;;16.52;8.57;;;;;;;2.34;100.00;99901.56;5073778;28;20381;-74
2022/12/07 07:40:35;;;;;;;15.85;8.75;;;;;;;2.34;100.00;99912.84;5065151;28;20134;-81
2022/12/07 07:43:03;;;;;;;15.27;9.10;;;;;;;2.42;100.00;99907.81;5062184;28;20318;-79
2022/12/07 07:45:28;;;;;;;19.40;10.15;;;;;;;2.54;100.00;99907.03;5053969;28;20039;-75
2022/12/07 07:47:53;;;;;;;15.63;9.52;;;;;;;2.68;100.00;99909.44;5053629;28;20021;-74
2022/12/07 07:50:20;;;;;;;18.48;9.30;;;;;;;2.74;100.00;99902.00;5053528;28;20028;-76
2022/12/07 07:52:54;;;;;;;15.90;8.45;;;;;;;2.89;100.00;99910.00;5036346;28;20025;-75
2022/12/07 07:55:19;;;;;;;18.27;9.80;;;;;;;3.07;100.00;99902.59;5054725;28;20388;-77
2022/12/07 07:57:45;;;;;;;19.25;9.57;;;;;;;3.16;100.00;99899.88;5053771;28;20049;-72
2022/12/07 08:00:13;;;;;;;19.98;9.82;;;;;;;3.25;100.00;99902.00;5053975;28;20029;-80
2022/12/07 08:02:42;;;;;;;20.55;9.98;;;;;;;3.31;100.00;99902.25;5054002;28;20028;-75
2022/12/07 08:05:08;;;;;;;18.55;10.30;;;;;;;3.32;100.00;99906.66;5053648;28;20395;-74
2022/12/07 08:07:35;;;;;;;19.75;8.75;;;;;;;3.44;100.00;99908.66;5035629;28;20037;-73
2022/12/07 08:10:01;;;;;;;17.60;9.07;;;;;;;3.42;100.00;99913.97;5052703;28;20032;-74
2022/12/07 08:12:27;;;;;;;21.90;10.35;;;;;;;3.48;100.00;99912.16;5035992;28;20025;-79
2022/12/07 08:14:54;;;;;;;15.50;8.98;;;;;;;3.39;100.00;99909.22;5052383;28;20029;-75
2022/12/07 08:17:20;;;;;;;16.88;9.20;;;;;;;3.38;100.00;99910.50;5053320;28;20041;-75
2022/12/07 08:19:46;;;;;;;16.98;8.23;;;;;;;3.30;100.00;99911.94;5053578;28;20036;-75
2022/12/07 08:22:13;;;;;;;17.25;9.68;;;;;;;3.21;100.00;99919.06;5053448;28;20028;-74
2022/12/07 08:24:39;;;;;;;16.90;9.45;;;;;;;3.18;100.00;99910.72;5053359;28;20052;-75
2022/12/07 08:27:05;;;;;;;15.90;9.45;;;;;;;3.08;100.00;99915.44;5053265;28;20366;-74
2022/12/07 08:29:31;;;;;;;19.67;10.60;;;;;;;2.99;100.00;99920.97;5053230;28;20051;-74
2022/12/07 08:31:58;;;;;;;19.58;9.00;;;;;;;2.91;100.00;99913.19;5051951;28;20504;-76
2022/12/07 08:34:24;;;;;;;18.48;9.43;;;;;;;2.79;100.00;99909.09;5053296;28;20062;-74
2022/12/07 08:36:50;;;;;;;17.35;10.07;;;;;;;2.71;100.00;99913.38;5053430;28;20032;-75
2022/12/07 08:39:16;;;;;;;17.20;9.82;;;;;;;2.70;100.00;99901.31;5056883;28;20032;-80
2022/12/07 08:41:45;;;;;;;19.98;9.35;;;;;;;2.80;100.00;99907.88;5060876;28;20113;-76
2022/12/07 08:44:12;;;;;;;20.70;10.52;;;;;;;2.91;100.00;99896.25;5074793;28;20539;-72
2022/12/07 08:46:45;;;;;;;16.55;8.95;;;;;;;3.17;100.00;99901.47;5077122;28;20032;-74
2022/12/07 08:49:24;;;;;;;18.23;8.95;;;;;;;3.30;100.00;99898.63;5059549;28;20032;-73
2022/12/07 08:52:04;;;;;;;17.95;8.55;;;;;;;3.35;100.00;99903.69;5077248;28;20111;-74
2022/12/07 08:54:38;;;;;;;17.20;9.32;;;;;;;3.38;100.00;99896.38;5076702;28;20138;-74
2022/12/07 08:57:05;;;;;;;16.02;8.95;;;;;;;3.31;100.00;99897.38;5077148;28;20111;-73
2022/12/07 08:59:35;;;;;;;16.95;8.45;;;;;;;3.20;100.00;99892.09;5059799;28;20025;-81
2022/12/07 09:02:01;;;;;;;15.98;8.93;;;;;;;3.17;100.00;99884.53;5059901;28;20205;-73
2022/12/07 09:04:28;;;;;;;19.23;9.02;;;;;;;3.18;100.00;99891.72;5074019;28;20045;-76
2022/12/07 09:06:54;;;;;;;14.30;8.07;;;;;;;3.16;100.00;99888.59;5076541;28;20040;-74
2022/12/07 09:09:22;;;;;;;17.73;7.88;;;;;;;3.25;100.00;99876.59;5059393;28;20032;-81
2022/12/07 09:11:56;;;;;;;13.93;7.60;;;;;;;3.56;100.00;99882.44;5076015;28;20024;-77
2022/12/07 09:14:22;;;;;;;12.95;7.63;;;;;;;3.78;100.00;99880.44;5076988;28;20028;-79
2022/12/07 09:16:48;;;;;;;11.90;6.95;;;;;;;3.83;100.00;99874.22;5077163;28;20381;-76
2022/12/07 09:19:15;;;;;;;9.77;5.95;;;;;;;4.02;100.00;99867.50;5076946;28;20488;-79
2022/12/07 09:21:44;;;;;;;9.50;5.70;;;;;;;4.15;100.00;99875.94;5074460;28;20430;-78
2022/12/07 09:24:13;;;;;;;14.48;6.68;;;;;;;4.24;100.00;99866.72;5077073;28;20526;-79
2022/12/07 09:26:40;;;;;;;13.95;7.50;;;;;;;4.37;100.00;99867.44;5074327;28;20040;-79
2022/12/07 09:29:06;;;;;;;10.60;6.57;;;;;;;4.42;100.00;99858.34;5078468;28;20029;-76
2022/12/07 09:31:31;;;;;;;9.10;5.93;;;;;;;4.65;100.00;99863.53;5075339;28;20497;-81
2022/12/07 09:33:59;;;;;;;9.73;6.00;;;;;;;4.66;100.00;99858.69;5076214;28;20028;-81
2022/12/07 09:36:28;;;;;;;13.05;5.97;;;;;;;4.87;100.00;99846.50;5078956;28;20040;-84
2022/12/07 09:38:55;;;;;;;9.65;5.55;;;;;;;5.11;100.00;99836.22;5075961;28;20428;-73
2022/12/07 09:41:23;;;;;;;10.88;5.63;;;;;;;5.38;100.00;99835.50;5058463;28;20090;-81
2022/12/07 09:43:49;;;;;;;10.98;6.32;;;;;;;5.49;100.00;99835.84;5058418;28;20029;-78
2022/12/07 09:46:19;;;;;;;10.82;6.15;;;;;;;5.53;100.00;99833.66;5076637;28;20028;-80
2022/12/07 09:48:45;;;;;;;10.98;5.93;;;;;;;5.65;100.00;99834.75;5058711;28;20033;-86
2022/12/07 09:51:16;;;;;;;9.35;5.68;;;;;;;5.74;100.00;99829.91;5075517;28;20032;-85
2022/12/07 09:53:42;;;;;;;10.85;6.40;;;;;;;5.74;100.00;99829.13;5077563;28;20028;-81
2022/12/07 09:56:12;;;;;;;11.75;6.60;;;;;;;5.73;100.00;99830.38;5056782;28;20032;-75
2022/12/07 09:58:39;;;;;;;13.13;7.05;;;;;;;5.71;100.00;99828.00;5058064;28;20024;-78
2022/12/07 10:01:12;;;;;;;10.32;6.47;;;;;;;5.69;100.00;99827.69;5071302;28;20115;-81
2022/12/07 10:03:45;;;;;;;15.70;7.15;;;;;;;5.70;100.00;99825.63;5074889;28;20103;-80
2022/12/07 10:06:26;;;;;;;14.15;6.63;;;;;;;5.63;100.00;99817.44;5074337;28;20149;-77
2022/12/07 10:08:52;;;;;;;12.45;7.10;;;;;;;5.64;100.00;99813.34;5076075;28;20029;-82
2022/12/07 10:11:19;;;;;;;13.50;8.40;;;;;;;5.64;100.00;99808.47;5074086;28;20060;-82
2022/12/07 10:14:10;;;;;;;14.30;7.60;;;;;;;5.73;100.00;99804.84;5075716;28;20035;-84
2022/12/07 10:16:39;;;;;;;12.77;7.47;;;;;;;5.84;100.00;99802.34;5074278;28;20032;-77
2022/12/07 10:19:21;;;;;;;12.38;6.95;;;;;;;5.93;100.00;99793.81;5075958;28;20104;-84
2022/12/07 10:22:11;;;;;;;11.65;7.22;;;;;;;6.01;100.00;99786.56;5074079;28;20477;-83
2022/12/07 10:24:40;;;;;;;11.82;7.25;;;;;;;6.09;100.00;99782.13;5071730;28;20036;-77
2022/12/07 10:27:19;;;;;;;14.07;8.20;;;;;;;5.95;100.00;99776.31;5073760;28;20139;-77
2022/12/07 10:29:52;;;;;;;12.68;7.15;;;;;;;5.78;100.00;99787.22;5073965;28;20170;-77
2022/12/07 10:32:28;;;;;;;13.25;7.78;;;;;;;5.68;100.00;99786.44;5075684;28;20386;-82
2022/12/07 10:35:29;;;;;;;15.68;7.90;;;;;;;5.50;100.00;99780.72;5074306;28;20021;-77
2022/12/07 10:37:57;;;;;;;14.20;7.53;;;;;;;5.42;100.00;99784.34;5075694;28;20035;-81
2022/12/07 10:40:36;;;;;;;12.65;6.75;;;;;;;5.43;100.00;99783.88;5041245;28;20035;-83
2022/12/07 10:43:19;;;;;;;15.95;8.25;;;;;;;5.29;100.00;99776.00;5073904;28;20519;-83
2022/12/07 10:46:04;;;;;;;14.73;7.03;;;;;;;5.17;100.00;99774.88;5057357;28;20401;-83
2022/12/07 10:48:44;;;;;;;12.60;6.53;;;;;;;5.05;100.00;99781.47;5075503;28;20036;-77
2022/12/07 10:51:35;;;;;;;12.85;7.15;;;;;;;5.04;100.00;99781.94;5073831;28;20478;-80
2022/12/07 10:54:20;;;;;;;14.45;8.20;;;;;;;5.05;100.00;99784.31;5073923;28;20025;-79
2022/12/07 10:57:11;;;;;;;11.43;6.57;;;;;;;4.98;100.00;99784.59;5075002;28;20028;-81
2022/12/07 10:59:58;;;;;;;6.93;4.00;;;;;;;4.99;100.00;99794.66;5074046;28;20461;-79
2022/12/07 11:02:49;;;;;;;5.15;3.53;;;;;;;4.82;100.00;99784.84;5075093;28;20028;-78
2022/12/07 11:05:36;;;;;;;5.70;2.97;;;;;;;4.67;100.00;99787.44;5075103;28;20351;-79
2022/12/07 11:08:32;;;;;;;5.85;3.10;;;;;;;4.53;100.00;99768.22;5074443;28;20035;-76
2022/12/07 11:11:07;;;;;;;4.53;2.90;;;;;;;4.56;100.00;99772.97;5074537;28;20363;-77
2022/12/07 11:13:56;;;;;;;6.00;3.78;;;;;;;4.42;100.00;99765.81;5073126;28;20036;-76
2022/12/07 11:16:37;;;;;;;4.95;3.50;;;;;;;4.31;100.00;99775.97;5072469;28;20039;-77
2022/12/07 11:19:14;;;;;;;8.15;4.32;;;;;;;4.18;100.00;99772.44;5074149;28;20123;-74
2022/12/07 11:22:02;;;;;;;6.82;3.22;;;;;;;4.10;100.00;99774.75;5074720;28;20029;-74
2022/12/07 11:25:14;;;;;;;6.68;4.05;;;;;;;4.02;100.00;99767.75;5073927;28;20377;-76
2022/12/07 11:28:21;;;;;;;12.70;4.03;;;;;;;4.05;100.00;99766.88;5036785;28;20140;-76
2022/12/07 11:31:13;;;;;;;10.90;4.15;;;;;;;4.19;100.00;99762.69;5074043;28;20434;-80
2022/12/07 11:33:48;;;;;;;11.45;4.13;;;;;;;4.30;100.00;99763.88;5073759;28;20035;-74
2022/12/07 11:36:18;;;;;;;12.73;4.88;;;;;;;4.30;100.00;99758.22;5073818;28;20029;-71
2022/12/07 11:38:50;;;;;;;5.95;3.65;;;;;;;4.40;100.00;99754.19;5074085;28;20162;-77
2022/12/07 11:41:26;;;;;;;8.13;4.32;;;;;;;4.57;100.00;99745.44;5072607;28;20054;-76
2022/12/07 11:44:15;;;;;;;12.35;3.83;;;;;;;4.55;100.00;99745.13;5073573;28;20028;-78
2022/12/07 11:47:09;;;;;;;6.30;3.58;;;;;;;4.34;100.00;99760.91;5042622;28;20032;-81
2022/12/07 11:49:48;;;;;;;7.30;3.60;;;;;;;4.38;100.00;99748.19;5073071;28;20045;-84
2022/12/07 11:52:26;;;;;;;6.80;3.40;;;;;;;4.41;100.00;99754.97;5055754;28;20058;-81
2022/12/07 11:54:53;;;;;;;8.68;3.45;;;;;;;4.45;100.00;99750.75;5039868;28;20025;-80
2022/12/07 11:57:35;;;;;;;4.50;3.08;;;;;;;4.31;100.00;99747.69;5056574;28;20096;-78
2022/12/07 12:00:17;;;;;;;4.50;3.08;;;;;;;4.37;100.00;99743.00;5072528;28;20459;-78
2022/12/07 12:02:55;;;;;;;6.63;3.40;;;;;;;4.25;100.00;99760.84;5073578;28;20078;-76